UKHH/HRK METAR and TAF weather

Enter ICAO airport designator
Station Type Date Time Source
UKHH METAR 2019/12/09 13:30 UTC NOAA

UKHH 091330Z 20004MPS 5000 BR OVC002 01/01 Q1016 R25/0///81 NOSIG


Station Type Date Time Source
UKHH Decoded METAR 2019/12/09 13:30 UTC NOAA

Kharkiv, Ukraine (UKHH) 49-58N 036-08E 155M
Dec 09, 2019 - 08:30 AM EST / 2019.12.09 1330 UTC
Wind: from the SSW (200 degrees) at 9 MPH (8 KT):0
Visibility: 3 mile(s):0
Sky conditions: overcast
Weather: mist
Temperature: 33 F (1 C)
Windchill: 24 F (-4 C):1
Dew Point: 33 F (1 C)
Relative Humidity: 100%
Pressure (altimeter): 30.00 in. Hg (1016 hPa)
ob: UKHH 091330Z 20004MPS 5000 BR OVC002 01/01 Q1016 R25/0///81 NOSIG
cycle: 13

Station Type Date Time Source
UKHH TAF 2019/12/09 12:09 UTC NOAA

TAF UKHH 091110Z 0912/1012 20006MPS 2100 BR OVC004 TX03/1012Z TNM02/1003Z
TEMPO 0912/0918 1200 OVC002
BECMG 0918/0920 17003MPS 0600 FZFG OVC002 PROB40
TEMPO 0921/1008 -FZDZ
BECMG 1008/1010 2100 BR BKN007

Example: see airport list